Flight Track Log - Related Links

Times and Time Zones

All times are in EDT time to prevent confusion due to time zone crossing. See the N847NG flight status page for this flight to view local times or setup timezone preferences in your user account.

Time Position Orientation Groundspeed Altitude Reporting Facility
EDT Latitude Longitude Course Direction KTS MPH feet Rate Location/Type
Sat 01:05:57 PM 37.9764 -84.6756 90° East 306 352 4,800  Level Indianapolis Center
Sat 01:06:59 PM 37.9300 -84.6194 136° Southeast 276 318 7,700 2,710 Climbing Indianapolis Center
Sat 01:08:01 PM 37.9281 -84.5078 91° East 295 339 10,400 2,613 Climbing Indianapolis Center
Sat 01:09:03 PM 37.9250 -84.3856 92° East 334 384 13,100 2,565 Climbing Indianapolis Center
Sat 01:10:05 PM 37.9200 -84.2392 92° East 353 406 15,700 2,177 Climbing Indianapolis Center
Sat 01:11:00 PM 37.9833 -83.8626 90° East  Level FlightAware Approximate
Sat 01:11:07 PM 37.9150 -84.1072 93° East 364 419 17,600  Level Indianapolis Center
Sat 01:12:09 PM 37.9119 -83.9708 92° East 379 436 19,000 677 Climbing Indianapolis Center
Sat 01:13:11 PM 37.9069 -83.8358 93° East 383 441 19,000  Level Indianapolis Center
Sat 01:14:13 PM 37.9019 -83.7006 93° East 383 441 19,000 339 Level Indianapolis Center
Sat 01:15:15 PM 37.8964 -83.5442 93° East 383 441 19,700 1,210 Climbing Indianapolis Center
Sat 01:16:17 PM 37.8908 -83.4053 93° East 388 447 21,500 1,790 Climbing Indianapolis Center
Sat 01:17:19 PM 37.8867 -83.2639 92° East 396 456 23,400 1,790 Climbing Indianapolis Center
Sat 01:18:21 PM 37.8800 -83.1194 93° East 403 464 25,200 1,839 Climbing Indianapolis Center
Sat 01:19:23 PM 37.8742 -82.9689 93° East 419 482 27,200 2,177 Climbing Indianapolis Center
Sat 01:20:25 PM 37.8675 -82.8225 93° East 420 483 29,700 2,419 Climbing Indianapolis Center
Sat 01:21:27 PM 37.8606 -82.6814 94° East 408 470 32,200 1,597 Climbing Indianapolis Center
Sat 01:22:29 PM 37.8542 -82.5125 93° East 407 468 33,000 871 Climbing Indianapolis Center
Sat 01:23:31 PM 37.8461 -82.3497 94° East 442 509 34,000 1,113 Climbing Indianapolis Center
Sat 01:24:33 PM 37.8378 -82.1817 94° East 466 536 35,300 1,210 Climbing Indianapolis Center
Sat 01:25:35 PM 37.8292 -82.0147 94° East 469 540 36,500 1,161 Climbing Indianapolis Center
Sat 01:26:37 PM 37.8206 -81.8486 94° East 470 541 37,700 1,161 Climbing Indianapolis Center
Sat 01:27:39 PM 37.8300 -81.6881 86° East 458 527 38,900 1,210 Climbing Indianapolis Center
Sat 01:28:41 PM 37.8425 -81.5175 85° East 451 519 40,200 1,016 Climbing Indianapolis Center
Sat 01:29:43 PM 37.8519 -81.3653 85° East 443 510 41,000 387 Climbing Indianapolis Center
Sat 01:30:45 PM 37.8619 -81.2078 85° East 443 510 41,000  Level Indianapolis Center
Sat 01:31:47 PM 37.8708 -81.0453 86° East 456 525 41,000  Level Indianapolis Center
Sat 01:32:49 PM 37.8833 -80.8531 85° East 459 528 41,000  Level Indianapolis Center
Sat 01:33:51 PM 37.8919 -80.6994 86° East 447 514 41,000  Level Indianapolis Center
Sat 01:34:53 PM 37.9006 -80.5461 86° East 444 511 41,000  Level Indianapolis Center
Sat 01:36:03 PM 37.9108 -80.3822 85° East 442 509 41,000  Level Washington Center
Sat 01:37:03 PM 37.9214 -80.2022 86° East 440 506 41,000  Level Washington Center
Sat 01:38:07 PM 37.9303 -80.0483 86° East 443 510 41,000  Level Washington Center
Sat 01:39:07 PM 37.9378 -79.8906 87° East 454 522 41,000  Level Washington Center
Sat 01:40:11 PM 37.9447 -79.7289 87° East 467 537 41,000  Level Washington Center
Sat 01:41:12 PM 37.9547 -79.5392 86° East 462 532 41,000  Level Washington Center
Sat 01:42:13 PM 37.9619 -79.3861 87° East 447 514 41,000  Level Washington Center
Sat 01:43:17 PM 37.9697 -79.2286 86° East 458 527 41,000  Level Washington Center
Sat 01:44:17 PM 37.9775 -79.0714 86° East 458 527 41,000  Level Washington Center
Sat 01:45:21 PM 37.9853 -78.8881 87° East 450 518 41,000  Level Washington Center
Sat 01:46:23 PM 37.9908 -78.7339 87° East 448 516 41,000  Level Washington Center
Sat 01:47:26 PM 37.9967 -78.5822 87° East 446 513 41,000 -677 Level Washington Center
Sat 01:48:27 PM 38.0047 -78.3981 87° East 447 514 39,600 -1,339 Descending Washington Center
Sat 01:49:27 PM 38.0111 -78.2431 87° East 450 518 38,300 -1,210 Descending Washington Center
Sat 01:50:31 PM 38.0442 -78.0936 74° East 444 511 37,100 -609 Descending Washington Center
Sat 01:51:35 PM 38.1056 -77.9703 58° Northeast 420 483 37,000 -48 Descending Washington Center
Sat 01:52:35 PM 38.1803 -77.8222 57° Northeast 416 479 37,000  Level Washington Center
Sat 01:53:36 PM 38.2442 -77.6917 58° Northeast 430 495 37,000  Level Washington Center
Sat 01:54:40 PM 38.3097 -77.5617 57° Northeast 435 501 37,000  Level Washington Center
Sat 01:55:41 PM 38.3847 -77.4442 51° Northeast 435 501 37,000 -48 Level Washington Center
Sat 01:56:45 PM 38.4681 -77.3403 44° Northeast 427 491 36,900 -581 Descending Washington Center
Sat 01:57:45 PM 38.5494 -77.2358 45° Northeast 423 487 35,800 -1,161 Descending Washington Center
Sat 01:58:49 PM 38.6447 -77.1142 45° Northeast 412 474 34,500 -1,258 Descending Washington Center
Sat 01:59:49 PM 38.7247 -77.0103 45° Northeast 409 471 33,200 -1,452 Descending Washington Center
Sat 02:00:53 PM 38.8058 -76.9064 45° Northeast 414 476 31,500 -1,536 Descending Washington Center
Sat 02:01:54 PM 38.8875 -76.8003 45° Northeast 417 480 30,000 -1,452 Descending Washington Center
Sat 02:02:57 PM 38.9700 -76.6939 45° Northeast 419 482 28,500 -1,584 Descending Washington Center
Sat 02:03:59 PM 39.0656 -76.5683 46° Northeast 416 479 26,700 -1,623 Descending Washington Center
Sat 02:04:59 PM 39.1458 -76.4644 45° Northeast 414 476 25,200 -1,306 Descending Washington Center
Sat 02:06:03 PM 39.2214 -76.3603 47° Northeast 405 466 24,000 -567 Descending Washington Center
Sat 02:07:06 PM 39.2972 -76.2619 45° Northeast 392 451 24,000 -293 Level Washington Center
Sat 02:08:06 PM 39.3828 -76.1519 45° Northeast 393 452 23,400 -1,210 Descending Washington Center
Sat 02:09:10 PM 39.4569 -76.0517 46° Northeast 390 449 21,500 -1,824 Descending Washington Center
Sat 02:10:11 PM 39.5297 -75.9553 46° Northeast 381 438 19,600 -1,820 Descending Washington Center
Sat 02:11:12 PM 39.6008 -75.8575 47° Northeast 378 435 17,800 -1,728 Descending Washington Center
Sat 02:12:16 PM 39.6717 -75.7642 45° Northeast 369 425 16,000 -1,901 Descending Washington Center
Sat 02:12:53 PM 39.7333 -75.6833 45° Northeast 356 410 14,600 -1,912 Descending Philadelphia TRACON
Sat 02:13:47 PM 39.8000 -75.6000 44° Northeast 344 396 13,100 -750 Descending Philadelphia TRACON
Sat 02:14:53 PM 39.8667 -75.5333 37° Northeast 335 386 13,100  Level Philadelphia TRACON
Sat 02:15:53 PM 39.9500 -75.4667 32° Northeast 333 383 13,100  Level Philadelphia TRACON
Sat 02:16:53 PM 40.0333 -75.3833 37° Northeast 334 384 13,100  Level Philadelphia TRACON
Sat 02:17:53 PM 40.1000 -75.3167 37° Northeast 326 375 13,100 -300 Level Philadelphia TRACON
Sat 02:18:53 PM 40.1667 -75.2500 37° Northeast 324 373 12,500 -895 Descending Philadelphia TRACON
Sat 02:19:47 PM 40.2333 -75.2000 30° Northeast 290 334 11,400 -1,451 Descending Philadelphia TRACON
Sat 02:21:26 PM 40.3500 -75.0833 37° Northeast 296 341 8,800 -1,660 Descending New York TRACON
Sat 02:22:26 PM 40.4000 -75.0000 52° Northeast 294 338 7,000 -1,900 Descending New York TRACON
Sat 02:23:26 PM 40.4500 -74.9333 45° Northeast 268 308 5,000 -1,950 Descending New York TRACON
Sat 02:24:26 PM 40.5000 -74.8667 45° Northeast 261 300 3,100 -950 Descending New York TRACON
Sat 02:25:26 PM 40.5333 -74.7833 62° Northeast 271 312 3,100  Level New York TRACON
Sat 02:26:26 PM 40.5667 -74.6833 66° East 260 299 3,100  Level New York TRACON
Sat 02:27:32 PM 40.6000 -74.6000 62° Northeast 266 306 3,100  Level New York TRACON
Sat 02:28:26 PM 40.6333 -74.5167 62° Northeast 269 310 3,100  Level New York TRACON
Sat 02:29:26 PM 40.6500 -74.4333 75° East 262 302 3,100 -200 Level New York TRACON
Sat 02:30:26 PM 40.6833 -74.3500 62° Northeast 251 289 2,700 -524 Descending New York TRACON
Sat 02:31:32 PM 40.7167 -74.2500 66° East 243 280 2,000 -524 Descending New York TRACON
Sat 02:32:32 PM 40.7667 -74.2000 37° Northeast 228 262 1,600 -200 Descending New York TRACON
Sat 02:33:32 PM 40.8000 -74.1500 49° Northeast 177 204 1,600 -350 Level New York TRACON
Sat 02:34:32 PM 40.8167 -74.1000 66° East 131 151 900 -700 Descending New York TRACON
Sat 02:36:00 PM 40.8500 -74.0500 57° Northeast  Level FlightAware Approximate

Login

Don't have an account? Register now (free) for customized features, flight alerts, and more!